sensor_id;sensor_type;location;lat;lon;timestamp;P1;durP1;ratioP1;P2;durP2;ratioP2
18455;SDS011;9357;49.900;8.208;2024-03-02T00:01:11;19.73;;;13.60;;
18455;SDS011;9357;49.900;8.208;2024-03-02T00:02:44;21.27;;;13.95;;
18455;SDS011;9357;49.900;8.208;2024-03-02T00:04:17;19.50;;;14.05;;
18455;SDS011;9357;49.900;8.208;2024-03-02T00:05:51;20.67;;;13.82;;
18455;SDS011;9357;49.900;8.208;2024-03-02T00:07:23;21.88;;;14.27;;
18455;SDS011;9357;49.900;8.208;2024-03-02T00:08:57;21.98;;;14.45;;
18455;SDS011;9357;49.900;8.208;2024-03-02T00:10:36;18.73;;;14.30;;
18455;SDS011;9357;49.900;8.208;2024-03-02T00:12:12;19.95;;;14.07;;
18455;SDS011;9357;49.900;8.208;2024-03-02T00:13:48;19.48;;;13.95;;
18455;SDS011;9357;49.900;8.208;2024-03-02T00:15:27;19.98;;;14.30;;
18455;SDS011;9357;49.900;8.208;2024-03-02T00:17:15;20.67;;;14.63;;
18455;SDS011;9357;49.900;8.208;2024-03-02T00:18:56;19.10;;;13.82;;
18455;SDS011;9357;49.900;8.208;2024-03-02T00:20:33;18.98;;;13.63;;
18455;SDS011;9357;49.900;8.208;2024-03-02T00:22:06;17.38;;;13.13;;
18455;SDS011;9357;49.900;8.208;2024-03-02T00:23:40;18.80;;;13.65;;
18455;SDS011;9357;49.900;8.208;2024-03-02T00:25:12;18.83;;;13.52;;
18455;SDS011;9357;49.900;8.208;2024-03-02T00:26:45;19.88;;;14.25;;
18455;SDS011;9357;49.900;8.208;2024-03-02T00:28:19;21.52;;;14.40;;
18455;SDS011;9357;49.900;8.208;2024-03-02T00:29:52;19.10;;;13.73;;
18455;SDS011;9357;49.900;8.208;2024-03-02T00:31:25;20.35;;;14.45;;
18455;SDS011;9357;49.900;8.208;2024-03-02T00:32:57;19.15;;;14.35;;
18455;SDS011;9357;49.900;8.208;2024-03-02T00:34:31;21.92;;;14.90;;
18455;SDS011;9357;49.900;8.208;2024-03-02T00:36:04;22.67;;;15.32;;
18455;SDS011;9357;49.900;8.208;2024-03-02T00:37:39;20.85;;;15.07;;
18455;SDS011;9357;49.900;8.208;2024-03-02T00:39:12;20.85;;;14.48;;
18455;SDS011;9357;49.900;8.208;2024-03-02T00:40:47;22.20;;;15.10;;
18455;SDS011;9357;49.900;8.208;2024-03-02T00:42:19;21.67;;;15.18;;
18455;SDS011;9357;49.900;8.208;2024-03-02T00:43:57;22.13;;;15.80;;
18455;SDS011;9357;49.900;8.208;2024-03-02T00:45:29;24.90;;;15.68;;
18455;SDS011;9357;49.900;8.208;2024-03-02T00:47:02;22.95;;;16.27;;
18455;SDS011;9357;49.900;8.208;2024-03-02T00:48:35;21.77;;;14.98;;
18455;SDS011;9357;49.900;8.208;2024-03-02T00:50:07;23.20;;;15.85;;
18455;SDS011;9357;49.900;8.208;2024-03-02T00:51:53;21.17;;;15.48;;
18455;SDS011;9357;49.900;8.208;2024-03-02T00:53:28;27.45;;;16.00;;
18455;SDS011;9357;49.900;8.208;2024-03-02T00:55:01;22.90;;;16.15;;
18455;SDS011;9357;49.900;8.208;2024-03-02T00:56:36;26.83;;;17.00;;
18455;SDS011;9357;49.900;8.208;2024-03-02T00:58:08;22.25;;;16.08;;
18455;SDS011;9357;49.900;8.208;2024-03-02T00:59:41;22.25;;;15.90;;
18455;SDS011;9357;49.900;8.208;2024-03-02T01:01:14;26.67;;;16.77;;
18455;SDS011;9357;49.900;8.208;2024-03-02T01:02:47;24.88;;;16.10;;
18455;SDS011;9357;49.900;8.208;2024-03-02T01:04:21;22.92;;;16.30;;
18455;SDS011;9357;49.900;8.208;2024-03-02T01:05:53;24.38;;;16.92;;
18455;SDS011;9357;49.900;8.208;2024-03-02T01:07:26;23.27;;;16.00;;
18455;SDS011;9357;49.900;8.208;2024-03-02T01:09:00;23.90;;;16.25;;
18455;SDS011;9357;49.900;8.208;2024-03-02T01:10:32;25.55;;;16.35;;
18455;SDS011;9357;49.900;8.208;2024-03-02T01:12:05;25.52;;;17.38;;
18455;SDS011;9357;49.900;8.208;2024-03-02T01:13:38;24.90;;;16.42;;
18455;SDS011;9357;49.900;8.208;2024-03-02T01:15:10;26.30;;;16.60;;
18455;SDS011;9357;49.900;8.208;2024-03-02T01:16:42;22.27;;;16.00;;
18455;SDS011;9357;49.900;8.208;2024-03-02T01:18:15;25.75;;;16.63;;
18455;SDS011;9357;49.900;8.208;2024-03-02T01:19:47;22.98;;;16.60;;
18455;SDS011;9357;49.900;8.208;2024-03-02T01:21:20;23.88;;;16.88;;
18455;SDS011;9357;49.900;8.208;2024-03-02T01:22:52;23.45;;;17.00;;
18455;SDS011;9357;49.900;8.208;2024-03-02T01:24:26;25.75;;;16.83;;
18455;SDS011;9357;49.900;8.208;2024-03-02T01:25:58;25.73;;;16.95;;
18455;SDS011;9357;49.900;8.208;2024-03-02T01:27:30;25.70;;;17.63;;
18455;SDS011;9357;49.900;8.208;2024-03-02T01:29:02;24.45;;;17.77;;
18455;SDS011;9357;49.900;8.208;2024-03-02T01:30:35;23.17;;;17.15;;
18455;SDS011;9357;49.900;8.208;2024-03-02T01:32:07;25.63;;;17.45;;
18455;SDS011;9357;49.900;8.208;2024-03-02T01:33:40;25.23;;;16.67;;
18455;SDS011;9357;49.900;8.208;2024-03-02T01:35:12;26.20;;;17.73;;
18455;SDS011;9357;49.900;8.208;2024-03-02T01:36:46;25.27;;;18.00;;
18455;SDS011;9357;49.900;8.208;2024-03-02T01:38:18;29.70;;;18.80;;
18455;SDS011;9357;49.900;8.208;2024-03-02T01:39:52;27.08;;;18.60;;
18455;SDS011;9357;49.900;8.208;2024-03-02T01:41:25;27.25;;;18.38;;
18455;SDS011;9357;49.900;8.208;2024-03-02T01:42:57;27.10;;;18.10;;
18455;SDS011;9357;49.900;8.208;2024-03-02T01:44:30;26.80;;;17.80;;
18455;SDS011;9357;49.900;8.208;2024-03-02T01:46:02;29.58;;;18.88;;
18455;SDS011;9357;49.900;8.208;2024-03-02T01:47:35;27.00;;;18.48;;
18455;SDS011;9357;49.900;8.208;2024-03-02T01:49:07;24.73;;;17.52;;
18455;SDS011;9357;49.900;8.208;2024-03-02T01:50:39;27.45;;;19.00;;
18455;SDS011;9357;49.900;8.208;2024-03-02T01:52:11;25.85;;;17.92;;
18455;SDS011;9357;49.900;8.208;2024-03-02T01:53:44;25.30;;;17.75;;
18455;SDS011;9357;49.900;8.208;2024-03-02T01:55:17;25.90;;;17.85;;
18455;SDS011;9357;49.900;8.208;2024-03-02T01:56:50;30.55;;;18.77;;
18455;SDS011;9357;49.900;8.208;2024-03-02T01:58:22;29.55;;;18.98;;
18455;SDS011;9357;49.900;8.208;2024-03-02T01:59:55;28.30;;;18.77;;
18455;SDS011;9357;49.900;8.208;2024-03-02T02:01:27;31.08;;;19.40;;
18455;SDS011;9357;49.900;8.208;2024-03-02T02:03:03;28.55;;;19.25;;
18455;SDS011;9357;49.900;8.208;2024-03-02T02:04:35;29.75;;;19.40;;
18455;SDS011;9357;49.900;8.208;2024-03-02T02:06:07;29.92;;;19.83;;
18455;SDS011;9357;49.900;8.208;2024-03-02T02:07:40;28.00;;;18.35;;
18455;SDS011;9357;49.900;8.208;2024-03-02T02:09:13;30.35;;;18.75;;
18455;SDS011;9357;49.900;8.208;2024-03-02T02:10:47;28.88;;;18.33;;
18455;SDS011;9357;49.900;8.208;2024-03-02T02:12:20;26.15;;;18.58;;
18455;SDS011;9357;49.900;8.208;2024-03-02T02:13:52;29.83;;;19.35;;
18455;SDS011;9357;49.900;8.208;2024-03-02T02:15:27;28.05;;;19.05;;
18455;SDS011;9357;49.900;8.208;2024-03-02T02:17:01;28.55;;;18.10;;
18455;SDS011;9357;49.900;8.208;2024-03-02T02:18:33;27.55;;;18.50;;
18455;SDS011;9357;49.900;8.208;2024-03-02T02:20:07;28.73;;;18.08;;
18455;SDS011;9357;49.900;8.208;2024-03-02T02:21:43;24.52;;;17.10;;
18455;SDS011;9357;49.900;8.208;2024-03-02T02:23:15;25.58;;;17.83;;
18455;SDS011;9357;49.900;8.208;2024-03-02T02:24:47;25.42;;;16.95;;
18455;SDS011;9357;49.900;8.208;2024-03-02T02:26:20;25.23;;;16.70;;
18455;SDS011;9357;49.900;8.208;2024-03-02T02:27:52;25.77;;;16.67;;
18455;SDS011;9357;49.900;8.208;2024-03-02T02:29:25;27.23;;;17.65;;
18455;SDS011;9357;49.900;8.208;2024-03-02T02:30:58;28.00;;;17.73;;
18455;SDS011;9357;49.900;8.208;2024-03-02T02:32:32;28.55;;;17.75;;
18455;SDS011;9357;49.900;8.208;2024-03-02T02:34:04;25.27;;;16.50;;
18455;SDS011;9357;49.900;8.208;2024-03-02T02:35:37;24.90;;;16.60;;
18455;SDS011;9357;49.900;8.208;2024-03-02T02:37:11;25.23;;;17.48;;
18455;SDS011;9357;49.900;8.208;2024-03-02T02:38:46;23.83;;;16.52;;
18455;SDS011;9357;49.900;8.208;2024-03-02T02:40:20;23.23;;;16.35;;
18455;SDS011;9357;49.900;8.208;2024-03-02T02:41:53;24.80;;;16.25;;
18455;SDS011;9357;49.900;8.208;2024-03-02T02:43:25;24.83;;;15.73;;
18455;SDS011;9357;49.900;8.208;2024-03-02T02:44:57;24.38;;;16.13;;
18455;SDS011;9357;49.900;8.208;2024-03-02T02:46:29;23.45;;;15.68;;
18455;SDS011;9357;49.900;8.208;2024-03-02T02:48:02;23.88;;;15.80;;
18455;SDS011;9357;49.900;8.208;2024-03-02T02:49:34;22.65;;;15.13;;
18455;SDS011;9357;49.900;8.208;2024-03-02T02:51:07;20.20;;;15.25;;
18455;SDS011;9357;49.900;8.208;2024-03-02T02:52:41;22.77;;;15.27;;
18455;SDS011;9357;49.900;8.208;2024-03-02T02:54:14;20.67;;;14.52;;
18455;SDS011;9357;49.900;8.208;2024-03-02T02:55:46;21.02;;;14.50;;
18455;SDS011;9357;49.900;8.208;2024-03-02T02:57:18;19.63;;;14.10;;
18455;SDS011;9357;49.900;8.208;2024-03-02T02:58:50;18.52;;;13.75;;
18455;SDS011;9357;49.900;8.208;2024-03-02T03:00:23;20.90;;;13.90;;
18455;SDS011;9357;49.900;8.208;2024-03-02T03:01:56;18.35;;;13.48;;
18455;SDS011;9357;49.900;8.208;2024-03-02T03:03:28;19.08;;;12.77;;
18455;SDS011;9357;49.900;8.208;2024-03-02T03:05:01;17.50;;;12.65;;
18455;SDS011;9357;49.900;8.208;2024-03-02T03:06:33;16.13;;;12.27;;
18455;SDS011;9357;49.900;8.208;2024-03-02T03:08:07;18.10;;;12.75;;
18455;SDS011;9357;49.900;8.208;2024-03-02T03:09:39;18.58;;;13.50;;
18455;SDS011;9357;49.900;8.208;2024-03-02T03:11:12;17.55;;;11.90;;
18455;SDS011;9357;49.900;8.208;2024-03-02T03:12:44;18.15;;;13.05;;
18455;SDS011;9357;49.900;8.208;2024-03-02T03:14:16;17.00;;;12.27;;
18455;SDS011;9357;49.900;8.208;2024-03-02T03:15:48;17.73;;;11.85;;
18455;SDS011;9357;49.900;8.208;2024-03-02T03:17:21;17.70;;;12.02;;
18455;SDS011;9357;49.900;8.208;2024-03-02T03:18:53;18.50;;;12.77;;
18455;SDS011;9357;49.900;8.208;2024-03-02T03:20:26;18.20;;;12.82;;
18455;SDS011;9357;49.900;8.208;2024-03-02T03:21:58;18.25;;;12.57;;
18455;SDS011;9357;49.900;8.208;2024-03-02T03:23:32;19.05;;;12.55;;
18455;SDS011;9357;49.900;8.208;2024-03-02T03:25:04;18.92;;;12.00;;
18455;SDS011;9357;49.900;8.208;2024-03-02T03:26:39;16.95;;;12.18;;
18455;SDS011;9357;49.900;8.208;2024-03-02T03:28:11;18.50;;;12.60;;
18455;SDS011;9357;49.900;8.208;2024-03-02T03:29:43;16.20;;;12.02;;
18455;SDS011;9357;49.900;8.208;2024-03-02T03:31:15;15.43;;;11.23;;
18455;SDS011;9357;49.900;8.208;2024-03-02T03:32:48;15.90;;;11.88;;
18455;SDS011;9357;49.900;8.208;2024-03-02T03:34:20;14.70;;;10.70;;
18455;SDS011;9357;49.900;8.208;2024-03-02T03:35:53;15.02;;;10.52;;
18455;SDS011;9357;49.900;8.208;2024-03-02T03:37:25;14.65;;;10.43;;
18455;SDS011;9357;49.900;8.208;2024-03-02T03:39:05;14.15;;;10.40;;
18455;SDS011;9357;49.900;8.208;2024-03-02T03:40:37;14.15;;;10.63;;
18455;SDS011;9357;49.900;8.208;2024-03-02T03:42:10;14.15;;;10.30;;
18455;SDS011;9357;49.900;8.208;2024-03-02T03:43:42;11.43;;;9.32;;
18455;SDS011;9357;49.900;8.208;2024-03-02T03:45:14;14.18;;;10.43;;
18455;SDS011;9357;49.900;8.208;2024-03-02T03:46:46;14.50;;;10.40;;
18455;SDS011;9357;49.900;8.208;2024-03-02T03:48:19;16.60;;;10.98;;
18455;SDS011;9357;49.900;8.208;2024-03-02T03:49:51;15.10;;;10.55;;
18455;SDS011;9357;49.900;8.208;2024-03-02T03:51:24;14.35;;;10.75;;
18455;SDS011;9357;49.900;8.208;2024-03-02T03:52:55;13.27;;;10.52;;
18455;SDS011;9357;49.900;8.208;2024-03-02T03:54:30;14.60;;;10.45;;
18455;SDS011;9357;49.900;8.208;2024-03-02T03:56:02;15.00;;;11.13;;
18455;SDS011;9357;49.900;8.208;2024-03-02T03:57:35;16.08;;;11.48;;
18455;SDS011;9357;49.900;8.208;2024-03-02T03:59:07;16.40;;;11.30;;
18455;SDS011;9357;49.900;8.208;2024-03-02T04:00:40;15.32;;;10.98;;
18455;SDS011;9357;49.900;8.208;2024-03-02T04:02:13;16.75;;;11.35;;
18455;SDS011;9357;49.900;8.208;2024-03-02T04:03:44;14.48;;;10.50;;
18455;SDS011;9357;49.900;8.208;2024-03-02T04:05:17;15.77;;;12.15;;
18455;SDS011;9357;49.900;8.208;2024-03-02T04:06:49;15.75;;;11.43;;
18455;SDS011;9357;49.900;8.208;2024-03-02T04:08:22;14.63;;;11.02;;
18455;SDS011;9357;49.900;8.208;2024-03-02T04:09:55;14.48;;;10.80;;
18455;SDS011;9357;49.900;8.208;2024-03-02T04:11:28;14.25;;;11.15;;
18455;SDS011;9357;49.900;8.208;2024-03-02T04:13:00;15.23;;;11.50;;
18455;SDS011;9357;49.900;8.208;2024-03-02T04:14:33;14.85;;;11.45;;
18455;SDS011;9357;49.900;8.208;2024-03-02T04:16:05;15.73;;;11.25;;
18455;SDS011;9357;49.900;8.208;2024-03-02T04:17:38;16.73;;;11.73;;
18455;SDS011;9357;49.900;8.208;2024-03-02T04:19:10;18.15;;;12.30;;
18455;SDS011;9357;49.900;8.208;2024-03-02T04:20:42;16.48;;;11.40;;
18455;SDS011;9357;49.900;8.208;2024-03-02T04:22:15;18.13;;;12.02;;
18455;SDS011;9357;49.900;8.208;2024-03-02T04:23:55;16.20;;;11.32;;
18455;SDS011;9357;49.900;8.208;2024-03-02T04:25:31;17.08;;;12.05;;
18455;SDS011;9357;49.900;8.208;2024-03-02T04:27:03;16.05;;;11.65;;
18455;SDS011;9357;49.900;8.208;2024-03-02T04:28:35;17.23;;;12.32;;
18455;SDS011;9357;49.900;8.208;2024-03-02T04:30:08;16.08;;;11.85;;
18455;SDS011;9357;49.900;8.208;2024-03-02T04:31:40;15.30;;;11.38;;
18455;SDS011;9357;49.900;8.208;2024-03-02T04:33:13;17.98;;;11.90;;
18455;SDS011;9357;49.900;8.208;2024-03-02T04:34:45;17.33;;;11.80;;
18455;SDS011;9357;49.900;8.208;2024-03-02T04:36:18;16.98;;;11.85;;
18455;SDS011;9357;49.900;8.208;2024-03-02T04:37:51;16.33;;;12.20;;
18455;SDS011;9357;49.900;8.208;2024-03-02T04:39:23;15.85;;;11.65;;
18455;SDS011;9357;49.900;8.208;2024-03-02T04:40:57;18.25;;;12.35;;
18455;SDS011;9357;49.900;8.208;2024-03-02T04:42:29;16.55;;;11.82;;
18455;SDS011;9357;49.900;8.208;2024-03-02T04:44:02;15.65;;;11.95;;
18455;SDS011;9357;49.900;8.208;2024-03-02T04:45:34;15.70;;;11.63;;
18455;SDS011;9357;49.900;8.208;2024-03-02T04:47:06;18.27;;;12.32;;
18455;SDS011;9357;49.900;8.208;2024-03-02T04:48:38;16.52;;;11.77;;
18455;SDS011;9357;49.900;8.208;2024-03-02T04:50:11;16.73;;;11.93;;
18455;SDS011;9357;49.900;8.208;2024-03-02T04:51:43;17.40;;;12.40;;
18455;SDS011;9357;49.900;8.208;2024-03-02T04:53:16;17.08;;;12.43;;
18455;SDS011;9357;49.900;8.208;2024-03-02T04:54:49;16.55;;;12.00;;
18455;SDS011;9357;49.900;8.208;2024-03-02T04:56:41;20.38;;;14.02;;
18455;SDS011;9357;49.900;8.208;2024-03-02T04:58:20;20.58;;;13.57;;
18455;SDS011;9357;49.900;8.208;2024-03-02T04:59:52;19.85;;;13.38;;
18455;SDS011;9357;49.900;8.208;2024-03-02T05:01:25;22.80;;;13.27;;
18455;SDS011;9357;49.900;8.208;2024-03-02T05:02:57;20.27;;;13.43;;
18455;SDS011;9357;49.900;8.208;2024-03-02T05:04:30;18.48;;;13.38;;
18455;SDS011;9357;49.900;8.208;2024-03-02T05:06:03;19.58;;;13.85;;
18455;SDS011;9357;49.900;8.208;2024-03-02T05:07:35;19.30;;;13.30;;
18455;SDS011;9357;49.900;8.208;2024-03-02T05:09:08;19.58;;;13.93;;
18455;SDS011;9357;49.900;8.208;2024-03-02T05:10:40;17.15;;;12.88;;
18455;SDS011;9357;49.900;8.208;2024-03-02T05:12:14;18.27;;;13.13;;
18455;SDS011;9357;49.900;8.208;2024-03-02T05:14:11;17.45;;;12.75;;
18455;SDS011;9357;49.900;8.208;2024-03-02T05:15:44;18.80;;;12.15;;
18455;SDS011;9357;49.900;8.208;2024-03-02T05:17:17;19.95;;;13.57;;
18455;SDS011;9357;49.900;8.208;2024-03-02T05:18:49;20.90;;;14.07;;
18455;SDS011;9357;49.900;8.208;2024-03-02T05:20:22;17.98;;;13.25;;
18455;SDS011;9357;49.900;8.208;2024-03-02T05:21:55;19.08;;;13.30;;
18455;SDS011;9357;49.900;8.208;2024-03-02T05:23:27;18.80;;;13.02;;
18455;SDS011;9357;49.900;8.208;2024-03-02T05:25:00;21.50;;;14.20;;
18455;SDS011;9357;49.900;8.208;2024-03-02T05:26:32;19.38;;;14.18;;
18455;SDS011;9357;49.900;8.208;2024-03-02T05:28:06;18.05;;;13.68;;
18455;SDS011;9357;49.900;8.208;2024-03-02T05:29:38;18.33;;;13.50;;
18455;SDS011;9357;49.900;8.208;2024-03-02T05:31:11;17.90;;;13.05;;
18455;SDS011;9357;49.900;8.208;2024-03-02T05:32:45;18.73;;;12.93;;
18455;SDS011;9357;49.900;8.208;2024-03-02T05:34:19;16.55;;;12.90;;
18455;SDS011;9357;49.900;8.208;2024-03-02T05:35:51;18.20;;;13.30;;
18455;SDS011;9357;49.900;8.208;2024-03-02T05:37:24;16.90;;;12.95;;
18455;SDS011;9357;49.900;8.208;2024-03-02T05:38:56;17.23;;;12.35;;
18455;SDS011;9357;49.900;8.208;2024-03-02T05:40:29;17.33;;;12.55;;
18455;SDS011;9357;49.900;8.208;2024-03-02T05:42:00;15.43;;;12.10;;
18455;SDS011;9357;49.900;8.208;2024-03-02T05:43:35;15.02;;;11.98;;
18455;SDS011;9357;49.900;8.208;2024-03-02T05:45:08;16.98;;;12.07;;
18455;SDS011;9357;49.900;8.208;2024-03-02T05:46:40;17.42;;;12.43;;
18455;SDS011;9357;49.900;8.208;2024-03-02T05:48:13;17.42;;;11.30;;
18455;SDS011;9357;49.900;8.208;2024-03-02T05:49:45;16.55;;;11.50;;
18455;SDS011;9357;49.900;8.208;2024-03-02T05:51:18;15.65;;;12.00;;
18455;SDS011;9357;49.900;8.208;2024-03-02T05:52:50;15.68;;;11.38;;
18455;SDS011;9357;49.900;8.208;2024-03-02T05:54:22;15.90;;;11.00;;
18455;SDS011;9357;49.900;8.208;2024-03-02T05:55:55;13.57;;;11.15;;
18455;SDS011;9357;49.900;8.208;2024-03-02T05:57:27;15.60;;;11.30;;
18455;SDS011;9357;49.900;8.208;2024-03-02T05:59:17;13.75;;;10.48;;
18455;SDS011;9357;49.900;8.208;2024-03-02T06:00:50;14.90;;;10.13;;
18455;SDS011;9357;49.900;8.208;2024-03-02T06:02:22;14.90;;;10.43;;
18455;SDS011;9357;49.900;8.208;2024-03-02T06:03:55;14.00;;;10.15;;
18455;SDS011;9357;49.900;8.208;2024-03-02T06:05:27;14.40;;;10.18;;
18455;SDS011;9357;49.900;8.208;2024-03-02T06:07:00;14.60;;;10.73;;
18455;SDS011;9357;49.900;8.208;2024-03-02T06:08:33;19.83;;;10.30;;
18455;SDS011;9357;49.900;8.208;2024-03-02T06:10:05;14.45;;;10.52;;
18455;SDS011;9357;49.900;8.208;2024-03-02T06:11:44;12.88;;;10.10;;
18455;SDS011;9357;49.900;8.208;2024-03-02T06:13:16;11.80;;;9.52;;
18455;SDS011;9357;49.900;8.208;2024-03-02T06:14:50;13.25;;;9.55;;
18455;SDS011;9357;49.900;8.208;2024-03-02T06:16:22;13.73;;;9.75;;
18455;SDS011;9357;49.900;8.208;2024-03-02T06:17:55;13.13;;;9.93;;
18455;SDS011;9357;49.900;8.208;2024-03-02T06:19:27;13.05;;;9.55;;
18455;SDS011;9357;49.900;8.208;2024-03-02T06:21:00;13.88;;;9.57;;
18455;SDS011;9357;49.900;8.208;2024-03-02T06:22:32;13.00;;;10.00;;
18455;SDS011;9357;49.900;8.208;2024-03-02T06:24:05;12.60;;;9.43;;
18455;SDS011;9357;49.900;8.208;2024-03-02T06:25:37;12.82;;;9.65;;
18455;SDS011;9357;49.900;8.208;2024-03-02T06:27:10;12.18;;;9.43;;
18455;SDS011;9357;49.900;8.208;2024-03-02T06:28:42;12.70;;;9.55;;
18455;SDS011;9357;49.900;8.208;2024-03-02T06:30:17;14.10;;;9.98;;
18455;SDS011;9357;49.900;8.208;2024-03-02T06:31:48;12.63;;;9.38;;
18455;SDS011;9357;49.900;8.208;2024-03-02T06:33:25;14.93;;;10.27;;
18455;SDS011;9357;49.900;8.208;2024-03-02T06:34:57;17.17;;;9.80;;
18455;SDS011;9357;49.900;8.208;2024-03-02T06:36:30;13.65;;;10.25;;
18455;SDS011;9357;49.900;8.208;2024-03-02T06:38:02;12.57;;;10.20;;
18455;SDS011;9357;49.900;8.208;2024-03-02T06:39:36;16.05;;;11.05;;
18455;SDS011;9357;49.900;8.208;2024-03-02T06:41:08;13.65;;;10.45;;
18455;SDS011;9357;49.900;8.208;2024-03-02T06:42:40;15.27;;;10.82;;
18455;SDS011;9357;49.900;8.208;2024-03-02T06:44:12;14.60;;;11.02;;
18455;SDS011;9357;49.900;8.208;2024-03-02T06:45:46;16.80;;;11.07;;
18455;SDS011;9357;49.900;8.208;2024-03-02T06:47:19;14.63;;;10.95;;
18455;SDS011;9357;49.900;8.208;2024-03-02T06:48:51;16.63;;;12.00;;
18455;SDS011;9357;49.900;8.208;2024-03-02T06:50:24;15.45;;;11.45;;
18455;SDS011;9357;49.900;8.208;2024-03-02T06:51:56;15.02;;;11.10;;
18455;SDS011;9357;49.900;8.208;2024-03-02T06:53:29;14.98;;;11.82;;
18455;SDS011;9357;49.900;8.208;2024-03-02T06:55:03;18.45;;;11.77;;
18455;SDS011;9357;49.900;8.208;2024-03-02T06:56:35;17.15;;;12.05;;
18455;SDS011;9357;49.900;8.208;2024-03-02T06:58:08;17.48;;;11.82;;
18455;SDS011;9357;49.900;8.208;2024-03-02T06:59:40;15.23;;;11.70;;
18455;SDS011;9357;49.900;8.208;2024-03-02T07:01:14;16.35;;;11.43;;
18455;SDS011;9357;49.900;8.208;2024-03-02T07:02:46;16.17;;;11.85;;
18455;SDS011;9357;49.900;8.208;2024-03-02T07:04:19;15.07;;;11.95;;
18455;SDS011;9357;49.900;8.208;2024-03-02T07:05:50;15.95;;;11.30;;
18455;SDS011;9357;49.900;8.208;2024-03-02T07:07:23;15.73;;;11.73;;
18455;SDS011;9357;49.900;8.208;2024-03-02T07:08:55;15.98;;;11.38;;
18455;SDS011;9357;49.900;8.208;2024-03-02T07:10:28;15.25;;;11.07;;
18455;SDS011;9357;49.900;8.208;2024-03-02T07:12:00;15.15;;;10.63;;
18455;SDS011;9357;49.900;8.208;2024-03-02T07:13:32;15.02;;;10.90;;
18455;SDS011;9357;49.900;8.208;2024-03-02T07:15:05;14.13;;;10.55;;
18455;SDS011;9357;49.900;8.208;2024-03-02T07:17:01;14.13;;;10.85;;
18455;SDS011;9357;49.900;8.208;2024-03-02T07:18:33;15.27;;;11.20;;
18455;SDS011;9357;49.900;8.208;2024-03-02T07:20:12;16.17;;;11.18;;
18455;SDS011;9357;49.900;8.208;2024-03-02T07:21:44;15.10;;;11.25;;
18455;SDS011;9357;49.900;8.208;2024-03-02T07:23:16;14.45;;;10.80;;
18455;SDS011;9357;49.900;8.208;2024-03-02T07:24:48;12.75;;;9.93;;
18455;SDS011;9357;49.900;8.208;2024-03-02T07:26:21;13.13;;;10.27;;
18455;SDS011;9357;49.900;8.208;2024-03-02T07:27:57;14.80;;;11.02;;
18455;SDS011;9357;49.900;8.208;2024-03-02T07:29:30;14.77;;;10.88;;
18455;SDS011;9357;49.900;8.208;2024-03-02T07:31:02;15.05;;;11.13;;
18455;SDS011;9357;49.900;8.208;2024-03-02T07:32:38;15.13;;;10.35;;
18455;SDS011;9357;49.900;8.208;2024-03-02T07:34:10;15.30;;;10.73;;
18455;SDS011;9357;49.900;8.208;2024-03-02T07:35:43;15.27;;;10.77;;
18455;SDS011;9357;49.900;8.208;2024-03-02T07:37:15;14.52;;;10.60;;
18455;SDS011;9357;49.900;8.208;2024-03-02T07:38:48;14.77;;;10.02;;
18455;SDS011;9357;49.900;8.208;2024-03-02T07:40:21;12.95;;;10.38;;
18455;SDS011;9357;49.900;8.208;2024-03-02T07:41:54;12.77;;;10.07;;
18455;SDS011;9357;49.900;8.208;2024-03-02T07:43:26;14.30;;;10.13;;
18455;SDS011;9357;49.900;8.208;2024-03-02T07:44:59;13.50;;;10.25;;
18455;SDS011;9357;49.900;8.208;2024-03-02T07:46:31;13.85;;;10.30;;
18455;SDS011;9357;49.900;8.208;2024-03-02T07:48:05;14.15;;;10.75;;
18455;SDS011;9357;49.900;8.208;2024-03-02T07:49:38;13.88;;;10.88;;
18455;SDS011;9357;49.900;8.208;2024-03-02T07:51:10;12.85;;;9.95;;
18455;SDS011;9357;49.900;8.208;2024-03-02T07:52:45;15.18;;;11.48;;
18455;SDS011;9357;49.900;8.208;2024-03-02T07:54:17;12.48;;;9.07;;
18455;SDS011;9357;49.900;8.208;2024-03-02T07:55:49;12.85;;;10.20;;
18455;SDS011;9357;49.900;8.208;2024-03-02T07:57:21;13.18;;;9.85;;
18455;SDS011;9357;49.900;8.208;2024-03-02T07:58:54;12.85;;;10.20;;
18455;SDS011;9357;49.900;8.208;2024-03-02T08:00:28;12.02;;;8.98;;
18455;SDS011;9357;49.900;8.208;2024-03-02T08:02:01;12.30;;;8.95;;
18455;SDS011;9357;49.900;8.208;2024-03-02T08:03:35;12.15;;;8.80;;
18455;SDS011;9357;49.900;8.208;2024-03-02T08:05:09;10.88;;;8.80;;
18455;SDS011;9357;49.900;8.208;2024-03-02T08:06:41;11.65;;;9.50;;
18455;SDS011;9357;49.900;8.208;2024-03-02T08:08:14;10.23;;;8.85;;
18455;SDS011;9357;49.900;8.208;2024-03-02T08:09:45;13.07;;;9.43;;
18455;SDS011;9357;49.900;8.208;2024-03-02T08:11:18;11.80;;;9.15;;
18455;SDS011;9357;49.900;8.208;2024-03-02T08:12:50;12.07;;;9.82;;
18455;SDS011;9357;49.900;8.208;2024-03-02T08:14:23;14.82;;;10.70;;
18455;SDS011;9357;49.900;8.208;2024-03-02T08:15:55;15.35;;;10.25;;
18455;SDS011;9357;49.900;8.208;2024-03-02T08:17:28;14.50;;;9.77;;
18455;SDS011;9357;49.900;8.208;2024-03-02T08:19:01;12.07;;;8.98;;
18455;SDS011;9357;49.900;8.208;2024-03-02T08:20:35;11.98;;;9.07;;
18455;SDS011;9357;49.900;8.208;2024-03-02T08:22:06;11.68;;;9.55;;
18455;SDS011;9357;49.900;8.208;2024-03-02T08:23:39;12.70;;;9.50;;
18455;SDS011;9357;49.900;8.208;2024-03-02T08:25:15;12.43;;;9.50;;
18455;SDS011;9357;49.900;8.208;2024-03-02T08:26:47;11.95;;;9.63;;
18455;SDS011;9357;49.900;8.208;2024-03-02T08:28:20;13.43;;;9.75;;
18455;SDS011;9357;49.900;8.208;2024-03-02T08:29:52;12.65;;;9.50;;
18455;SDS011;9357;49.900;8.208;2024-03-02T08:31:25;12.60;;;9.65;;
18455;SDS011;9357;49.900;8.208;2024-03-02T08:32:57;12.05;;;9.55;;
18455;SDS011;9357;49.900;8.208;2024-03-02T08:34:31;10.73;;;9.07;;
18455;SDS011;9357;49.900;8.208;2024-03-02T08:36:03;13.63;;;9.63;;
18455;SDS011;9357;49.900;8.208;2024-03-02T08:37:37;12.27;;;9.68;;
18455;SDS011;9357;49.900;8.208;2024-03-02T08:39:11;13.30;;;9.27;;
18455;SDS011;9357;49.900;8.208;2024-03-02T08:40:46;12.23;;;8.98;;
18455;SDS011;9357;49.900;8.208;2024-03-02T08:42:19;14.60;;;10.07;;
18455;SDS011;9357;49.900;8.208;2024-03-02T08:43:51;15.57;;;10.90;;
18455;SDS011;9357;49.900;8.208;2024-03-02T08:45:24;14.10;;;10.68;;
18455;SDS011;9357;49.900;8.208;2024-03-02T08:46:55;15.68;;;10.85;;
18455;SDS011;9357;49.900;8.208;2024-03-02T08:48:28;16.38;;;11.63;;
18455;SDS011;9357;49.900;8.208;2024-03-02T08:50:02;15.10;;;11.05;;
18455;SDS011;9357;49.900;8.208;2024-03-02T08:51:35;12.23;;;10.23;;
18455;SDS011;9357;49.900;8.208;2024-03-02T08:53:07;13.23;;;10.77;;
18455;SDS011;9357;49.900;8.208;2024-03-02T08:54:40;13.63;;;10.13;;
18455;SDS011;9357;49.900;8.208;2024-03-02T08:56:12;13.90;;;10.23;;
18455;SDS011;9357;49.900;8.208;2024-03-02T08:57:44;12.98;;;10.15;;
18455;SDS011;9357;49.900;8.208;2024-03-02T08:59:17;12.43;;;10.02;;
18455;SDS011;9357;49.900;8.208;2024-03-02T09:00:49;14.20;;;11.25;;
18455;SDS011;9357;49.900;8.208;2024-03-02T09:02:22;13.18;;;10.82;;
18455;SDS011;9357;49.900;8.208;2024-03-02T09:03:54;13.93;;;10.82;;
18455;SDS011;9357;49.900;8.208;2024-03-02T09:05:28;13.98;;;10.65;;
18455;SDS011;9357;49.900;8.208;2024-03-02T09:07:00;14.18;;;10.00;;
18455;SDS011;9357;49.900;8.208;2024-03-02T09:08:33;13.15;;;10.27;;
18455;SDS011;9357;49.900;8.208;2024-03-02T09:10:07;14.45;;;10.85;;
18455;SDS011;9357;49.900;8.208;2024-03-02T09:11:41;14.65;;;10.98;;
18455;SDS011;9357;49.900;8.208;2024-03-02T09:13:14;14.70;;;11.05;;
18455;SDS011;9357;49.900;8.208;2024-03-02T09:14:46;12.85;;;10.70;;